Time;durP1;ratioP1;P1;durP2;ratioP2;P2;SDS_P1;SDS_P2;PMS_P1;PMS_P2;Temp;Humidity;BMP_temperature;BMP_pressure;BME280_temperature;BME280_humidity;BME280_pressure;Samples;Min_cycle;Max_cycle;Signal;HPM_P1;HPM_P2
2021/10/19 00:01:46;;;;;;;12.45;9.27;;;22.60;38.90;;;;;;4782126;29;20131;-54
2021/10/19 00:04:13;;;;;;;11.40;9.05;;;22.60;38.90;;;;;;4780936;29;20355;-55
2021/10/19 00:06:40;;;;;;;10.95;8.98;;;22.60;38.90;;;;;;4781427;29;20059;-55
2021/10/19 00:09:07;;;;;;;11.70;9.05;;;22.60;38.90;;;;;;4767009;29;20134;-55
2021/10/19 00:11:35;;;;;;;10.73;8.65;;;22.60;38.90;;;;;;4780962;29;20082;-56
2021/10/19 00:14:02;;;;;;;11.75;9.18;;;22.60;38.90;;;;;;4781238;29;20070;-55
2021/10/19 00:16:29;;;;;;;10.18;8.30;;;22.60;38.90;;;;;;4781056;29;20474;-54
2021/10/19 00:18:56;;;;;;;13.82;8.70;;;22.60;38.80;;;;;;4761097;29;20512;-55
2021/10/19 00:21:23;;;;;;;10.60;8.02;;;22.60;38.80;;;;;;4780634;29;20093;-55
2021/10/19 00:23:50;;;;;;;13.68;9.80;;;22.60;38.80;;;;;;4781037;29;20108;-57
2021/10/19 00:26:17;;;;;;;10.10;7.95;;;22.70;38.80;;;;;;4780867;29;20047;-55
2021/10/19 00:28:46;;;;;;;11.13;8.57;;;22.70;38.80;;;;;;4769322;29;20084;-55
2021/10/19 00:31:13;;;;;;;13.25;9.00;;;22.60;38.80;;;;;;4778099;29;20058;-55
2021/10/19 00:33:40;;;;;;;12.23;8.57;;;22.60;38.70;;;;;;4779898;29;20190;-55
2021/10/19 00:36:07;;;;;;;13.93;9.02;;;22.60;38.70;;;;;;4790881;29;20059;-55
2021/10/19 00:38:34;;;;;;;13.27;8.75;;;22.70;38.80;;;;;;4778730;29;20051;-54
2021/10/19 00:41:03;;;;;;;10.27;7.95;;;22.60;38.70;;;;;;4764415;29;20073;-54
2021/10/19 00:43:30;;;;;;;11.25;8.23;;;22.60;38.80;;;;;;4763682;30;20510;-53
2021/10/19 00:45:57;;;;;;;11.35;8.15;;;22.60;38.80;;;;;;4762625;30;20139;-55
2021/10/19 00:48:26;;;;;;;10.90;8.18;;;22.60;38.70;;;;;;4761133;30;20055;-55
2021/10/19 00:50:55;;;;;;;11.30;7.68;;;22.60;38.70;;;;;;4773316;29;20085;-55
2021/10/19 00:53:23;;;;;;;9.65;7.68;;;22.60;38.70;;;;;;4779231;30;20081;-54
2021/10/19 00:55:51;;;;;;;10.80;7.80;;;22.60;38.80;;;;;;4779118;30;20138;-55
2021/10/19 00:58:18;;;;;;;10.63;7.57;;;22.60;38.80;;;;;;4765512;29;20162;-53
2021/10/19 01:00:45;;;;;;;10.38;8.05;;;22.60;38.80;;;;;;4775888;29;20359;-57
2021/10/19 01:03:13;;;;;;;11.20;8.40;;;22.60;38.80;;;;;;4779724;30;20094;-55
2021/10/19 01:05:40;;;;;;;9.98;7.63;;;22.60;38.80;;;;;;4780803;29;20131;-54
2021/10/19 01:08:10;;;;;;;11.38;7.60;;;22.60;38.80;;;;;;4762788;29;20055;-56
2021/10/19 01:10:38;;;;;;;11.65;8.38;;;22.50;38.70;;;;;;4774878;29;20095;-55
2021/10/19 01:13:05;;;;;;;11.57;7.97;;;22.50;38.70;;;;;;4780662;29;20059;-53
2021/10/19 01:15:34;;;;;;;8.88;7.45;;;22.50;38.70;;;;;;4779939;29;20138;-55
2021/10/19 01:18:01;;;;;;;10.73;7.90;;;22.50;38.70;;;;;;4773632;29;20162;-53
2021/10/19 01:20:31;;;;;;;8.88;7.65;;;22.50;38.80;;;;;;4770440;29;20117;-54
2021/10/19 01:22:59;;;;;;;10.20;7.47;;;22.50;38.80;;;;;;4779521;30;20077;-55
2021/10/19 01:25:29;;;;;;;10.15;7.88;;;22.50;38.80;;;;;;4780570;29;20051;-59
2021/10/19 01:28:05;;;;;;;9.73;7.13;;;22.50;38.80;;;;;;4773855;29;20107;-53
2021/10/19 01:30:38;;;;;;;10.07;7.40;;;22.50;39.30;;;;;;4771133;29;20054;-54
2021/10/19 01:33:05;;;;;;;10.25;7.47;;;22.50;38.80;;;;;;4780468;29;20055;-55
2021/10/19 01:35:41;;;;;;;9.32;7.22;;;22.40;38.70;;;;;;4780278;29;20619;-55
2021/10/19 01:38:12;;;;;;;8.63;6.53;;;22.40;38.70;;;;;;4773336;29;20051;-55
2021/10/19 01:40:41;;;;;;;10.85;7.60;;;22.40;38.70;;;;;;4772832;29;20047;-53
2021/10/19 01:43:11;;;;;;;8.20;6.70;;;22.40;38.70;;;;;;4784038;29;20110;-55
2021/10/19 01:45:39;;;;;;;8.93;7.35;;;22.40;38.70;;;;;;4783595;29;20078;-54
2021/10/19 01:48:06;;;;;;;7.82;6.53;;;22.40;38.60;;;;;;4776198;29;20086;-55
2021/10/19 01:50:34;;;;;;;9.02;7.35;;;22.40;38.60;;;;;;4775118;29;20051;-54
2021/10/19 01:53:02;;;;;;;7.72;6.55;;;22.40;38.60;;;;;;4783540;29;20090;-55
2021/10/19 01:55:30;;;;;;;10.70;7.18;;;22.40;38.60;;;;;;4783707;29;20341;-53
2021/10/19 01:57:57;;;;;;;9.18;6.65;;;22.40;38.60;;;;;;4776680;29;20150;-53
2021/10/19 02:00:24;;;;;;;10.43;7.22;;;22.50;38.70;;;;;;4774238;29;20063;-55
2021/10/19 02:02:52;;;;;;;8.50;6.55;;;22.50;38.60;;;;;;4783746;29;20089;-54
2021/10/19 02:05:19;;;;;;;8.43;7.18;;;22.50;38.60;;;;;;4783277;29;20063;-55
2021/10/19 02:07:46;;;;;;;8.10;6.30;;;22.50;38.60;;;;;;4777692;29;20112;-54
2021/10/19 02:10:13;;;;;;;8.63;6.80;;;22.50;38.60;;;;;;4769920;29;20507;-55
2021/10/19 02:12:42;;;;;;;8.23;6.75;;;22.50;38.60;;;;;;4765451;30;20138;-52
2021/10/19 02:15:10;;;;;;;7.63;6.15;;;22.50;38.60;;;;;;4766221;30;20090;-54
2021/10/19 02:17:38;;;;;;;8.30;6.53;;;22.50;38.50;;;;;;4759480;30;20059;-55
2021/10/19 02:20:06;;;;;;;7.78;6.15;;;22.50;38.50;;;;;;4772844;29;20501;-52
2021/10/19 02:22:34;;;;;;;7.88;6.30;;;22.50;38.50;;;;;;4783063;29;20563;-54
2021/10/19 02:25:02;;;;;;;7.75;6.38;;;22.50;38.40;;;;;;4783091;29;20051;-53
2021/10/19 02:27:29;;;;;;;7.57;5.80;;;22.50;38.40;;;;;;4778606;29;20246;-56
2021/10/19 02:29:57;;;;;;;7.60;6.35;;;22.50;38.50;;;;;;4771404;29;20059;-54
2021/10/19 02:32:24;;;;;;;6.97;5.85;;;22.50;38.40;;;;;;4767420;30;20056;-54
2021/10/19 02:34:52;;;;;;;8.70;6.35;;;22.50;38.40;;;;;;4767108;30;20142;-54
2021/10/19 02:37:19;;;;;;;7.00;5.35;;;22.50;38.40;;;;;;4765792;30;20048;-53
2021/10/19 02:39:46;;;;;;;6.72;5.55;;;22.50;38.50;;;;;;4771139;29;20091;-55
2021/10/19 02:42:13;;;;;;;8.57;6.10;;;22.50;38.50;;;;;;4784616;29;20142;-56
2021/10/19 02:44:41;;;;;;;6.95;5.88;;;22.40;38.40;;;;;;4784142;29;20138;-54
2021/10/19 02:47:08;;;;;;;8.75;6.43;;;22.50;38.40;;;;;;4785133;29;20477;-54
2021/10/19 02:49:35;;;;;;;8.38;5.75;;;22.40;38.40;;;;;;4768457;29;20055;-55
2021/10/19 02:52:02;;;;;;;7.85;6.30;;;22.40;38.40;;;;;;4783548;29;20097;-54
2021/10/19 02:54:30;;;;;;;8.18;6.40;;;22.40;38.40;;;;;;4783148;30;20091;-54
2021/10/19 02:56:57;;;;;;;7.38;5.53;;;22.40;38.40;;;;;;4784504;29;20089;-53
2021/10/19 02:59:24;;;;;;;8.27;5.85;;;22.40;38.50;;;;;;4767653;29;20094;-55
2021/10/19 03:01:51;;;;;;;7.88;5.95;;;22.40;38.50;;;;;;4784595;29;20138;-54
2021/10/19 03:04:19;;;;;;;5.95;5.15;;;22.40;38.50;;;;;;4784294;29;20058;-52
2021/10/19 03:06:46;;;;;;;6.65;5.20;;;22.40;38.50;;;;;;4783665;29;20139;-53
2021/10/19 03:09:13;;;;;;;6.78;5.22;;;22.40;38.50;;;;;;4766154;29;20051;-53
2021/10/19 03:11:40;;;;;;;7.45;5.70;;;22.30;38.40;;;;;;4782132;29;20090;-55
2021/10/19 03:14:07;;;;;;;6.50;5.30;;;22.40;38.50;;;;;;4782549;29;20130;-54
2021/10/19 03:16:34;;;;;;;7.25;5.57;;;22.30;38.40;;;;;;4781163;30;20151;-54
2021/10/19 03:19:01;;;;;;;7.53;6.03;;;22.30;38.40;;;;;;4766735;29;20410;-54
2021/10/19 03:21:29;;;;;;;7.10;5.80;;;22.30;38.40;;;;;;4782071;29;20321;-56
2021/10/19 03:23:56;;;;;;;8.30;5.82;;;22.30;38.40;;;;;;4782509;29;20290;-55
2021/10/19 03:26:23;;;;;;;5.72;5.00;;;22.30;38.40;;;;;;4782149;29;20055;-56
2021/10/19 03:28:50;;;;;;;7.00;5.97;;;22.30;38.40;;;;;;4767367;29;20462;-55
2021/10/19 03:31:17;;;;;;;7.28;5.53;;;22.30;38.40;;;;;;4780871;29;20067;-54
2021/10/19 03:33:44;;;;;;;7.65;5.43;;;22.30;38.40;;;;;;4781150;29;20055;-55
2021/10/19 03:36:12;;;;;;;7.47;5.68;;;22.40;38.40;;;;;;4779581;29;20055;-54
2021/10/19 03:38:39;;;;;;;6.45;5.35;;;22.30;38.40;;;;;;4768373;29;20047;-55
2021/10/19 03:41:07;;;;;;;6.65;5.05;;;22.40;38.30;;;;;;4775324;29;20066;-55
2021/10/19 03:43:35;;;;;;;6.10;4.88;;;22.30;38.30;;;;;;4780208;29;20134;-53
2021/10/19 03:46:02;;;;;;;8.07;6.13;;;22.40;38.30;;;;;;4785455;29;20120;-53
2021/10/19 03:48:29;;;;;;;5.53;4.65;;;22.40;38.30;;;;;;4763290;29;20240;-54
2021/10/19 03:50:59;;;;;;;8.20;5.47;;;22.40;38.30;;;;;;4765937;29;20180;-54
2021/10/19 03:53:26;;;;;;;7.90;5.90;;;22.40;38.30;;;;;;4763599;30;20052;-54
2021/10/19 03:55:55;;;;;;;5.82;4.53;;;22.40;38.30;;;;;;4763736;30;20142;-55
2021/10/19 03:58:23;;;;;;;5.95;4.88;;;22.40;38.30;;;;;;4756762;30;20138;-53
2021/10/19 04:00:50;;;;;;;6.70;5.20;;;22.40;38.30;;;;;;4775920;29;20055;-56
2021/10/19 04:03:17;;;;;;;6.13;4.97;;;22.40;38.30;;;;;;4765122;30;20057;-53
2021/10/19 04:05:44;;;;;;;5.93;4.95;;;22.40;38.30;;;;;;4777730;29;20059;-55
2021/10/19 04:08:11;;;;;;;5.47;4.80;;;22.40;38.30;;;;;;4773558;29;20062;-53
2021/10/19 04:10:39;;;;;;;5.38;4.47;;;22.40;38.30;;;;;;4774833;29;20429;-54
2021/10/19 04:13:06;;;;;;;8.48;5.80;;;22.40;38.20;;;;;;4782407;29;20426;-55
2021/10/19 04:15:33;;;;;;;6.70;4.50;;;22.40;38.20;;;;;;4783472;29;20146;-56
2021/10/19 04:18:00;;;;;;;5.22;4.60;;;22.40;38.20;;;;;;4776116;29;20138;-55
2021/10/19 04:20:27;;;;;;;4.30;3.90;;;22.40;38.20;;;;;;4773872;29;20082;-54
2021/10/19 04:22:54;;;;;;;6.10;5.05;;;22.40;38.20;;;;;;4782319;29;20501;-54
2021/10/19 04:25:21;;;;;;;5.68;4.57;;;22.30;38.20;;;;;;4782461;29;20047;-54
2021/10/19 04:27:49;;;;;;;5.30;4.80;;;22.30;38.20;;;;;;4776086;29;20087;-55
2021/10/19 04:30:16;;;;;;;4.68;4.07;;;22.30;38.20;;;;;;4772928;29;20055;-53
2021/10/19 04:32:43;;;;;;;6.05;4.82;;;22.30;38.20;;;;;;4783131;29;20459;-53
2021/10/19 04:35:10;;;;;;;5.85;4.90;;;22.40;38.20;;;;;;4783112;29;20083;-55
2021/10/19 04:37:37;;;;;;;6.32;4.35;;;22.30;38.20;;;;;;4775519;29;20814;-54
2021/10/19 04:40:05;;;;;;;6.35;4.70;;;22.30;38.20;;;;;;4773023;29;20065;-55
2021/10/19 04:42:33;;;;;;;4.88;4.07;;;22.30;38.20;;;;;;4782778;29;20051;-54
2021/10/19 04:45:00;;;;;;;4.68;4.20;;;22.30;38.20;;;;;;4782450;29;20184;-55
2021/10/19 04:47:28;;;;;;;5.10;4.38;;;22.30;38.20;;;;;;4780634;29;20142;-55
2021/10/19 04:49:58;;;;;;;7.13;4.18;;;22.30;38.20;;;;;;4765019;29;20621;-55
2021/10/19 04:52:26;;;;;;;4.28;3.85;;;22.30;38.20;;;;;;4772383;30;20165;-56
2021/10/19 04:54:54;;;;;;;5.05;3.83;;;22.20;38.20;;;;;;4779348;29;20083;-54
2021/10/19 04:57:22;;;;;;;5.28;4.38;;;22.20;38.20;;;;;;4780737;29;20142;-54
2021/10/19 04:59:49;;;;;;;4.90;4.40;;;22.20;38.20;;;;;;4764099;30;20051;-53
2021/10/19 05:02:16;;;;;;;5.22;4.05;;;22.20;38.20;;;;;;4779930;29;20067;-52
2021/10/19 05:04:43;;;;;;;4.93;3.90;;;22.20;38.20;;;;;;4782223;29;20047;-54
2021/10/19 05:07:10;;;;;;;5.63;4.25;;;22.20;38.20;;;;;;4782912;30;20094;-56
2021/10/19 05:09:37;;;;;;;5.75;3.92;;;22.20;37.90;;;;;;4766597;29;20082;-54
2021/10/19 05:12:05;;;;;;;4.60;3.85;;;22.20;37.70;;;;;;4781594;30;20051;-54
2021/10/19 05:14:32;;;;;;;4.68;4.03;;;22.20;37.60;;;;;;4782621;29;20051;-54
2021/10/19 05:17:00;;;;;;;3.97;3.53;;;22.20;37.50;;;;;;4776177;29;20065;-55
2021/10/19 05:19:27;;;;;;;4.47;4.07;;;22.20;37.40;;;;;;4763983;29;20047;-53
2021/10/19 05:21:54;;;;;;;3.88;3.47;;;22.20;37.50;;;;;;4778521;29;20098;-56
2021/10/19 05:24:21;;;;;;;4.95;4.03;;;22.20;37.50;;;;;;4779381;29;20086;-55
2021/10/19 05:26:49;;;;;;;4.15;3.75;;;22.30;37.90;;;;;;4781069;30;20130;-56
2021/10/19 05:29:16;;;;;;;5.85;3.80;;;22.30;38.10;;;;;;4756058;29;20120;-57
2021/10/19 05:31:43;;;;;;;4.22;3.33;;;22.20;38.20;;;;;;4774390;29;20047;-54
2021/10/19 05:34:10;;;;;;;5.07;4.10;;;22.20;38.30;;;;;;4777783;29;20055;-55
2021/10/19 05:36:37;;;;;;;4.28;3.45;;;22.20;38.30;;;;;;4777349;30;20146;-56
2021/10/19 05:39:06;;;;;;;6.13;3.47;;;22.20;38.10;;;;;;4759357;29;20505;-56
2021/10/19 05:41:33;;;;;;;3.83;3.40;;;22.20;38.00;;;;;;4773010;29;20083;-54
2021/10/19 05:44:00;;;;;;;6.05;4.38;;;22.20;37.80;;;;;;4773503;29;20075;-50
2021/10/19 05:46:27;;;;;;;4.93;3.75;;;22.30;37.90;;;;;;4771653;30;20100;-54
2021/10/19 05:48:56;;;;;;;4.45;3.80;;;22.30;38.10;;;;;;4761275;29;20061;-55
2021/10/19 05:51:24;;;;;;;6.07;3.92;;;22.30;38.30;;;;;;4767885;29;20055;-54
2021/10/19 05:53:51;;;;;;;3.95;3.63;;;22.30;38.40;;;;;;4772405;29;20553;-56
2021/10/19 05:56:18;;;;;;;7.60;3.53;;;22.30;38.40;;;;;;4775106;29;20086;-56
2021/10/19 05:58:45;;;;;;;4.88;3.50;;;22.40;38.30;;;;;;4759138;29;20150;-54
2021/10/19 06:01:13;;;;;;;8.75;4.43;;;22.40;38.40;;;;;;4765840;29;20078;-55
2021/10/19 06:03:40;;;;;;;8.43;4.50;;;22.40;38.40;;;;;;4771534;29;20571;-56
2021/10/19 06:06:12;;;;;;;;;;;22.50;38.40;;;;;;4775079;29;20047;-54
2021/10/19 06:08:39;;;;;;;14.75;4.75;;;22.50;38.40;;;;;;4763824;29;19944;-55
2021/10/19 06:11:06;;;;;;;9.68;4.70;;;22.60;38.50;;;;;;4766846;30;20501;-57
2021/10/19 06:13:33;;;;;;;9.75;4.72;;;22.60;38.80;;;;;;4766858;30;20066;-56
2021/10/19 06:16:01;;;;;;;10.50;5.32;;;22.70;38.70;;;;;;4770792;30;20762;-50
2021/10/19 06:18:28;;;;;;;12.20;5.20;;;22.70;38.50;;;;;;4764540;29;20051;-53
2021/10/19 06:20:56;;;;;;;6.07;4.57;;;22.80;38.20;;;;;;4761643;29;20522;-52
2021/10/19 06:23:23;;;;;;;4.90;4.18;;;22.80;37.90;;;;;;4767213;29;20078;-54
2021/10/19 06:25:50;;;;;;;9.80;5.43;;;22.90;37.70;;;;;;4771781;29;21018;-56
2021/10/19 06:28:17;;;;;;;7.15;5.07;;;22.90;37.60;;;;;;4763900;29;20463;-57
2021/10/19 06:30:44;;;;;;;5.40;4.78;;;22.90;37.50;;;;;;4767598;29;20429;-56
2021/10/19 06:33:12;;;;;;;6.63;4.70;;;23.00;37.40;;;;;;4776721;29;20130;-55
2021/10/19 06:35:41;;;;;;;8.05;4.78;;;23.00;37.40;;;;;;4776564;29;20055;-55
2021/10/19 06:38:09;;;;;;;7.97;6.00;;;23.10;37.30;;;;;;4768407;29;20594;-54
2021/10/19 06:40:37;;;;;;;6.55;5.18;;;23.10;37.30;;;;;;4765863;29;20088;-57
2021/10/19 06:43:05;;;;;;;11.15;6.00;;;23.20;37.20;;;;;;4772846;29;20059;-55
2021/10/19 06:45:33;;;;;;;6.80;5.10;;;23.20;37.20;;;;;;4774847;29;20582;-54
2021/10/19 06:48:00;;;;;;;6.50;5.57;;;23.20;37.20;;;;;;4768714;29;20052;-55
2021/10/19 06:50:27;;;;;;;7.60;5.82;;;23.20;37.30;;;;;;4761446;29;20537;-56
2021/10/19 06:52:55;;;;;;;6.07;5.40;;;23.30;37.40;;;;;;4775385;30;20187;-52
2021/10/19 06:55:22;;;;;;;12.25;6.40;;;23.30;37.50;;;;;;4777009;29;20505;-51
2021/10/19 06:57:50;;;;;;;6.80;5.75;;;23.30;37.40;;;;;;4771700;30;21549;-51
2021/10/19 07:00:18;;;;;;;7.78;5.65;;;23.30;37.50;;;;;;4764175;29;20059;-56
2021/10/19 07:02:46;;;;;;;7.60;5.78;;;23.40;37.60;;;;;;4774113;29;20146;-57
2021/10/19 07:05:15;;;;;;;6.95;5.72;;;23.40;37.60;;;;;;4773364;29;20134;-55
2021/10/19 07:07:43;;;;;;;6.60;5.47;;;23.50;37.60;;;;;;4770222;29;20418;-58
2021/10/19 07:10:11;;;;;;;9.65;6.13;;;23.50;37.50;;;;;;4758420;29;20151;-56
2021/10/19 07:12:39;;;;;;;9.10;5.50;;;23.50;37.40;;;;;;4773367;30;20146;-54
2021/10/19 07:15:08;;;;;;;10.13;5.70;;;23.50;37.30;;;;;;4775562;29;20047;-58
2021/10/19 07:17:37;;;;;;;6.75;5.40;;;23.60;37.40;;;;;;4770133;29;20118;-59
2021/10/19 07:20:07;;;;;;;8.48;5.93;;;23.60;37.40;;;;;;4761684;30;20078;-58
2021/10/19 07:22:35;;;;;;;8.82;5.93;;;23.60;37.30;;;;;;4773137;30;20051;-58
2021/10/19 07:25:04;;;;;;;7.85;5.82;;;23.60;37.40;;;;;;4773925;30;20147;-59
2021/10/19 07:27:35;;;;;;;7.68;5.53;;;23.70;37.50;;;;;;4769293;29;20070;-60
2021/10/19 07:30:04;;;;;;;9.27;6.20;;;23.70;37.40;;;;;;4759037;29;20059;-57
2021/10/19 07:32:31;;;;;;;10.70;6.30;;;23.70;37.30;;;;;;4775542;29;20141;-57
2021/10/19 07:34:58;;;;;;;7.80;6.38;;;23.80;37.40;;;;;;4775271;29;20151;-58
2021/10/19 07:37:26;;;;;;;8.02;6.03;;;23.80;37.50;;;;;;4773850;29;20087;-57
2021/10/19 07:39:53;;;;;;;7.35;6.03;;;23.80;37.50;;;;;;4757994;29;22661;-56
2021/10/19 07:42:20;;;;;;;8.38;6.45;;;23.80;37.30;;;;;;4773285;29;20478;-54
2021/10/19 07:44:47;;;;;;;8.77;6.90;;;23.90;37.30;;;;;;4773125;29;20135;-57
2021/10/19 07:47:14;;;;;;;9.38;6.35;;;23.90;37.30;;;;;;4770312;29;20051;-57
2021/10/19 07:49:41;;;;;;;9.15;6.50;;;23.90;37.30;;;;;;4754236;29;20086;-57
2021/10/19 07:52:08;;;;;;;8.48;6.45;;;23.90;37.20;;;;;;4774152;29;20056;-56
2021/10/19 07:54:35;;;;;;;11.98;7.22;;;24.00;37.30;;;;;;4776270;29;20065;-57
2021/10/19 07:57:03;;;;;;;8.35;6.40;;;24.00;37.30;;;;;;4776549;29;20051;-59
2021/10/19 07:59:31;;;;;;;6.90;6.20;;;24.00;37.30;;;;;;4755028;29;20056;-57
2021/10/19 08:01:58;;;;;;;7.80;6.03;;;24.00;37.20;;;;;;4772816;29;20116;-57
2021/10/19 08:04:25;;;;;;;7.38;6.32;;;24.10;37.30;;;;;;4773244;30;20142;-54
2021/10/19 08:06:52;;;;;;;10.60;6.53;;;24.00;37.30;;;;;;4772165;29;20087;-57
2021/10/19 08:09:20;;;;;;;11.52;7.28;;;24.00;37.20;;;;;;4758845;29;20835;-57
2021/10/19 08:11:47;;;;;;;9.60;6.32;;;24.10;37.30;;;;;;4772191;29;20154;-58
2021/10/19 08:14:14;;;;;;;8.60;6.10;;;24.10;37.30;;;;;;4771101;29;20070;-55
2021/10/19 08:16:41;;;;;;;8.65;6.13;;;24.10;37.40;;;;;;4773801;29;20052;-58
2021/10/19 08:19:09;;;;;;;8.38;6.50;;;24.10;37.50;;;;;;4772834;29;20083;-56
2021/10/19 08:21:36;;;;;;;7.10;6.13;;;24.10;37.60;;;;;;4771505;29;20055;-57
2021/10/19 08:24:03;;;;;;;9.57;6.00;;;24.10;37.70;;;;;;4774291;30;20069;-57
2021/10/19 08:26:30;;;;;;;9.32;6.10;;;24.10;37.80;;;;;;4771564;29;20628;-56
2021/10/19 08:28:59;;;;;;;9.57;6.68;;;24.10;37.80;;;;;;4774742;29;20187;-55
2021/10/19 08:31:27;;;;;;;7.60;5.65;;;24.10;37.80;;;;;;4771870;29;20234;-57
2021/10/19 08:33:54;;;;;;;8.27;6.00;;;24.20;37.80;;;;;;4770167;29;20055;-57
2021/10/19 08:36:22;;;;;;;8.85;5.55;;;24.20;38.30;;;;;;4769417;29;20478;-57
2021/10/19 08:38:50;;;;;;;7.50;5.65;;;24.20;37.80;;;;;;4768043;30;20073;-58
2021/10/19 08:41:18;;;;;;;7.43;5.20;;;24.20;37.80;;;;;;4770343;30;20061;-55
2021/10/19 08:43:46;;;;;;;7.57;5.53;;;24.30;38.00;;;;;;4772166;29;20158;-57
2021/10/19 08:46:15;;;;;;;6.07;5.18;;;24.30;38.00;;;;;;4771162;29;20138;-58
2021/10/19 08:48:42;;;;;;;10.02;5.40;;;24.30;38.00;;;;;;4771822;30;20059;-56
2021/10/19 08:51:11;;;;;;;7.47;5.07;;;24.30;38.10;;;;;;4771954;29;20090;-54
2021/10/19 08:53:40;;;;;;;7.68;5.18;;;24.30;38.20;;;;;;4773120;29;20484;-55
2021/10/19 08:56:08;;;;;;;7.93;5.20;;;24.40;38.30;;;;;;4775207;30;20039;-55
2021/10/19 08:58:38;;;;;;;5.70;4.70;;;24.40;38.50;;;;;;4771958;30;20065;-57
2021/10/19 09:01:10;;;;;;;5.85;4.80;;;24.40;38.50;;;;;;4773893;30;20506;-58
2021/10/19 09:03:49;;;;;;;5.25;4.75;;;24.50;38.30;;;;;;4776772;29;22502;-54
2021/10/19 09:06:18;;;;;;;5.15;4.60;;;24.50;37.90;;;;;;4774904;29;20051;-58
2021/10/19 09:08:51;;;;;;;5.85;4.50;;;24.50;37.60;;;;;;4774872;29;20138;-56
2021/10/19 09:11:18;;;;;;;6.00;4.30;;;24.50;37.40;;;;;;4773444;29;20510;-54
2021/10/19 09:13:53;;;;;;;6.38;4.10;;;24.50;37.30;;;;;;4772143;29;20094;-58
2021/10/19 09:16:45;;;;;;;5.05;4.28;;;24.50;37.30;;;;;;4776965;29;20067;-56
2021/10/19 09:19:16;;;;;;;4.75;3.78;;;24.60;37.50;;;;;;4775213;29;20059;-58
2021/10/19 09:21:50;;;;;;;4.88;3.90;;;24.60;37.30;;;;;;4774658;29;20059;-58
2021/10/19 09:24:33;;;;;;;6.75;4.32;;;24.60;37.30;;;;;;4773454;29;20074;-57
2021/10/19 09:27:08;;;;;;;4.72;3.72;;;24.60;37.20;;;;;;4774115;29;20130;-58
2021/10/19 09:29:40;;;;;;;5.85;4.00;;;24.70;37.20;;;;;;4760240;29;20465;-58
2021/10/19 09:32:09;;;;;;;6.18;3.50;;;24.70;37.20;;;;;;4775338;29;20060;-57
2021/10/19 09:34:37;;;;;;;4.20;3.70;;;24.70;37.10;;;;;;4773753;29;20100;-57
2021/10/19 09:37:06;;;;;;;4.03;3.58;;;24.70;37.00;;;;;;4774082;29;20134;-58
2021/10/19 09:39:43;;;;;;;3.92;3.13;;;24.70;37.00;;;;;;4758900;29;20078;-58
2021/10/19 09:42:22;;;;;;;2.95;2.72;;;24.80;37.10;;;;;;4772844;30;20107;-58
2021/10/19 09:45:01;;;;;;;3.75;3.05;;;24.80;37.00;;;;;;4773320;30;20581;-58
2021/10/19 09:47:36;;;;;;;3.92;3.53;;;24.80;36.90;;;;;;4773707;29;20062;-58
2021/10/19 09:50:06;;;;;;;4.93;3.30;;;24.80;36.90;;;;;;4758032;30;20056;-58
2021/10/19 09:52:37;;;;;;;2.60;2.40;;;24.80;36.90;;;;;;4772493;30;20466;-57
2021/10/19 09:55:07;;;;;;;2.97;2.67;;;24.90;37.10;;;;;;4774513;29;20078;-56
2021/10/19 09:57:38;;;;;;;5.70;2.90;;;24.90;37.20;;;;;;4774199;29;20060;-57
2021/10/19 10:00:07;;;;;;;4.30;2.70;;;24.90;37.20;;;;;;4758204;29;20059;-57
2021/10/19 10:02:34;;;;;;;5.97;2.95;;;25.00;37.20;;;;;;4773069;29;20855;-58
2021/10/19 10:05:03;;;;;;;6.75;2.70;;;25.00;37.10;;;;;;4777151;30;20055;-58
2021/10/19 10:07:31;;;;;;;6.05;2.90;;;25.00;37.10;;;;;;4776090;29;20482;-58
2021/10/19 10:09:59;;;;;;;3.42;2.72;;;25.00;37.10;;;;;;4759367;29;20094;-58
2021/10/19 10:12:28;;;;;;;4.20;2.67;;;25.10;37.10;;;;;;4772224;29;20084;-58
2021/10/19 10:14:55;;;;;;;2.38;2.17;;;25.10;36.90;;;;;;4774884;30;20061;-57
2021/10/19 10:17:22;;;;;;;2.30;2.10;;;25.10;36.90;;;;;;4776327;29;20138;-61
2021/10/19 10:19:51;;;;;;;3.20;2.58;;;25.20;36.90;;;;;;4767181;29;20094;-57
2021/10/19 10:22:28;;;;;;;2.10;1.90;;;25.20;36.80;;;;;;4776008;30;20067;-56
2021/10/19 10:25:08;;;;;;;2.72;2.50;;;25.30;36.80;;;;;;4776528;29;20817;-57
2021/10/19 10:27:36;;;;;;;2.78;2.25;;;25.30;36.70;;;;;;4778620;30;20104;-56
2021/10/19 10:30:04;;;;;;;2.92;2.25;;;25.30;36.60;;;;;;4783766;29;20082;-56
2021/10/19 10:32:36;;;;;;;3.53;2.22;;;25.40;36.60;;;;;;4785242;29;20520;-54
2021/10/19 10:35:10;;;;;;;3.97;2.10;;;25.40;36.60;;;;;;4776834;29;20182;-53
2021/10/19 10:37:53;;;;;;;2.40;2.20;;;25.40;36.50;;;;;;4778920;29;20474;-53
2021/10/19 10:40:33;;;;;;;3.67;2.22;;;25.50;36.40;;;;;;4775062;30;20071;-57
2021/10/19 10:43:18;;;;;;;3.90;2.13;;;25.50;36.30;;;;;;4776443;29;20139;-57
2021/10/19 10:46:06;;;;;;;2.35;2.10;;;25.60;36.30;;;;;;4777770;30;20051;-57
2021/10/19 10:48:35;;;;;;;2.92;1.83;;;25.70;36.10;;;;;;4777942;29;20070;-58
2021/10/19 10:51:04;;;;;;;2.65;2.22;;;25.70;35.80;;;;;;4775282;30;20108;-57
2021/10/19 10:53:36;;;;;;;4.22;2.15;;;25.80;35.80;;;;;;4778681;30;20131;-58
2021/10/19 10:56:05;;;;;;;2.65;2.00;;;25.80;35.70;;;;;;4778026;29;20137;-58
2021/10/19 10:58:35;;;;;;;3.47;2.17;;;25.80;35.60;;;;;;4767904;29;20087;-55
2021/10/19 11:01:14;;;;;;;1.83;1.70;;;25.80;35.40;;;;;;4770335;30;20062;-56
2021/10/19 11:03:43;;;;;;;2.45;1.95;;;25.90;35.40;;;;;;4776547;29;20068;-56
2021/10/19 11:06:17;;;;;;;1.67;1.58;;;26.00;35.40;;;;;;4776711;29;20059;-56
2021/10/19 11:08:47;;;;;;;1.60;1.45;;;26.00;35.30;;;;;;4764078;29;20135;-58
2021/10/19 11:11:19;;;;;;;1.92;1.58;;;26.00;35.10;;;;;;4773118;29;20467;-58
2021/10/19 11:14:02;;;;;;;1.23;1.23;;;26.10;35.10;;;;;;4776941;29;20147;-57
2021/10/19 11:16:40;;;;;;;3.60;1.63;;;26.10;35.00;;;;;;4777937;29;20516;-54
2021/10/19 11:19:21;;;;;;;1.52;1.42;;;26.10;34.90;;;;;;4761534;29;20120;-54
2021/10/19 11:21:57;;;;;;;1.65;1.55;;;26.20;34.90;;;;;;4772126;29;20505;-55
2021/10/19 11:24:26;;;;;;;1.60;1.50;;;26.10;34.90;;;;;;4773094;30;20051;-55
2021/10/19 11:26:54;;;;;;;1.83;1.63;;;26.20;35.00;;;;;;4775223;29;20082;-58
2021/10/19 11:29:21;;;;;;;2.15;1.67;;;26.20;35.10;;;;;;4763069;29;20130;-57
2021/10/19 11:31:50;;;;;;;4.75;1.75;;;26.30;35.20;;;;;;4771176;29;20067;-57
2021/10/19 11:34:18;;;;;;;1.50;1.40;;;26.20;35.20;;;;;;4777114;29;20505;-55
2021/10/19 11:36:51;;;;;;;1.50;1.40;;;26.20;35.20;;;;;;4771136;29;20083;-57
2021/10/19 11:39:19;;;;;;;3.38;2.30;;;26.30;35.10;;;;;;4757630;29;20051;-56
2021/10/19 11:41:56;;;;;;;3.72;1.48;;;26.20;34.80;;;;;;4760546;30;20574;-58
2021/10/19 11:44:29;;;;;;;1.75;1.45;;;26.20;34.70;;;;;;4773494;30;20055;-56
2021/10/19 11:46:59;;;;;;;1.33;1.23;;;26.20;34.60;;;;;;4770918;29;20150;-57
2021/10/19 11:49:28;;;;;;;3.03;1.40;;;26.30;34.70;;;;;;4759169;29;20635;-57
2021/10/19 11:51:56;;;;;;;4.10;1.30;;;26.20;34.40;;;;;;4778455;29;20141;-58
2021/10/19 11:54:23;;;;;;;3.85;1.52;;;26.30;34.40;;;;;;4776215;30;20311;-56
2021/10/19 11:56:56;;;;;;;1.90;1.35;;;26.30;34.50;;;;;;4777318;29;20082;-57
2021/10/19 11:59:24;;;;;;;1.60;1.33;;;26.30;34.40;;;;;;4760935;29;20531;-57
2021/10/19 12:01:53;;;;;;;3.42;1.60;;;26.20;34.50;;;;;;4758174;30;20087;-56
2021/10/19 12:04:25;;;;;;;7.05;1.50;;;26.20;34.40;;;;;;4776256;29;20150;-55
2021/10/19 12:06:53;;;;;;;4.75;1.63;;;26.20;34.20;;;;;;4775048;29;20079;-56
2021/10/19 12:09:27;;;;;;;2.42;1.90;;;26.20;34.30;;;;;;4761187;29;20087;-57
2021/10/19 12:11:57;;;;;;;3.33;1.23;;;26.20;34.30;;;;;;4774247;29;20154;-56
2021/10/19 12:14:39;;;;;;;2.97;1.55;;;26.20;34.20;;;;;;4775207;29;20062;-58
2021/10/19 12:17:10;;;;;;;1.83;1.45;;;26.20;34.20;;;;;;4770381;29;20541;-59
2021/10/19 12:19:55;;;;;;;4.65;1.80;;;26.20;34.40;;;;;;4760055;29;20055;-57
2021/10/19 12:22:33;;;;;;;5.50;2.33;;;26.20;34.50;;;;;;4775480;29;20055;-57
2021/10/19 12:25:06;;;;;;;4.50;2.67;;;26.20;34.50;;;;;;4775269;29;20082;-57
2021/10/19 12:27:37;;;;;;;3.47;2.40;;;26.20;34.60;;;;;;4769779;29;20116;-56
2021/10/19 12:30:22;;;;;;;6.93;2.50;;;26.20;34.60;;;;;;4758763;29;20385;-56
2021/10/19 12:32:49;;;;;;;3.15;2.40;;;26.30;34.60;;;;;;4776253;29;20059;-54
2021/10/19 12:35:17;;;;;;;5.63;2.50;;;26.30;34.60;;;;;;4776049;29;20154;-57
2021/10/19 12:37:44;;;;;;;3.08;2.30;;;26.20;34.50;;;;;;4768114;29;20138;-54
2021/10/19 12:40:19;;;;;;;3.58;2.08;;;26.30;34.70;;;;;;4761712;29;20467;-58
2021/10/19 12:42:47;;;;;;;3.47;1.80;;;26.30;34.50;;;;;;4774860;29;20055;-58
2021/10/19 12:45:14;;;;;;;2.85;1.92;;;26.30;34.40;;;;;;4773916;29;20484;-56
2021/10/19 12:47:41;;;;;;;2.40;1.77;;;26.30;34.40;;;;;;4765184;29;20059;-56
2021/10/19 12:50:09;;;;;;;2.65;1.80;;;26.30;34.40;;;;;;4760515;29;20820;-57
2021/10/19 12:52:36;;;;;;;7.18;2.55;;;26.30;34.50;;;;;;4773571;30;20648;-56
2021/10/19 12:55:04;;;;;;;2.60;1.90;;;26.30;34.40;;;;;;4771859;29;20506;-57